createdAt,value
2022-10-01T08:25:23.929Z,12.32
2022-10-01T08:27:27.600Z,10.65
2022-10-01T08:29:30.000Z,11.15
2022-10-01T08:31:32.780Z,10.27
2022-10-01T08:33:36.672Z,9.90
2022-10-01T08:35:40.549Z,10.05
2022-10-01T08:37:42.756Z,10.75
2022-10-01T08:39:45.219Z,11.00
2022-10-01T08:42:18.765Z,9.48
2022-10-01T08:44:28.540Z,11.55
2022-10-01T08:46:35.709Z,11.17
2022-10-01T08:49:01.877Z,10.45
2022-10-01T08:51:09.769Z,10.00
2022-10-01T08:53:19.887Z,11.30
2022-10-01T08:55:26.790Z,9.77
2022-10-01T08:57:34.628Z,10.07
2022-10-01T08:59:44.107Z,10.40
2022-10-01T09:01:46.375Z,10.50
2022-10-01T09:03:49.406Z,11.60
2022-10-01T09:06:15.046Z,12.13
2022-10-01T09:08:45.298Z,11.40
2022-10-01T09:11:00.839Z,10.90
2022-10-01T09:13:13.962Z,12.95
2022-10-01T09:15:32.618Z,12.48
2022-10-01T09:17:49.970Z,12.30
2022-10-01T09:20:05.041Z,10.75
2022-10-01T09:22:34.414Z,14.38
2022-10-01T09:24:43.909Z,12.37
2022-10-01T09:26:51.306Z,10.77
2022-10-01T09:28:55.841Z,11.60
2022-10-01T09:31:14.112Z,11.27
2022-10-01T09:33:20.338Z,12.63
2022-10-01T09:35:48.556Z,12.88
2022-10-01T09:38:00.223Z,11.73
2022-10-01T09:40:19.958Z,12.57
2022-10-01T09:42:27.756Z,12.63
2022-10-01T09:44:32.247Z,13.10
2022-10-01T09:46:35.690Z,12.73
2022-10-01T09:48:44.721Z,12.37
2022-10-01T09:50:56.150Z,13.65
2022-10-01T09:53:00.684Z,12.45
2022-10-01T09:55:11.435Z,12.40
2022-10-01T09:57:19.908Z,12.43
2022-10-01T09:59:31.358Z,13.00
2022-10-01T10:01:43.968Z,11.52
2022-10-01T10:03:57.466Z,11.60
2022-10-01T10:06:01.270Z,11.90
2022-10-01T10:08:12.377Z,15.35
2022-10-01T10:10:26.318Z,11.57
2022-10-01T10:12:30.814Z,12.50
2022-10-01T10:14:40.808Z,11.98
2022-10-01T10:16:47.329Z,12.05
2022-10-01T10:18:53.444Z,11.88
2022-10-01T10:20:56.744Z,13.13
2022-10-01T10:23:21.827Z,12.15
2022-10-01T10:25:25.129Z,12.15
2022-10-01T10:34:32.827Z,12.52
2022-10-01T10:36:37.330Z,12.63
2022-10-01T10:38:39.844Z,12.88
2022-10-01T10:40:44.523Z,11.25
2022-10-01T10:42:50.788Z,12.60
2022-10-01T10:44:55.788Z,12.90
2022-10-01T10:47:06.614Z,12.43
2022-10-01T10:49:23.289Z,11.70
2022-10-01T10:51:27.762Z,13.57
2022-10-01T10:53:41.671Z,12.37
2022-10-01T10:55:56.133Z,11.85
2022-10-01T10:58:12.536Z,12.25
2022-10-01T11:00:18.475Z,11.55
2022-10-01T11:02:23.990Z,12.15
2022-10-01T11:04:38.173Z,12.93
2022-10-01T11:06:40.778Z,12.45
2022-10-01T11:08:43.854Z,11.98
2022-10-01T11:10:55.020Z,13.23
2022-10-01T11:13:21.977Z,15.93
2022-10-01T11:15:52.679Z,11.55
2022-10-01T11:17:59.339Z,13.32
2022-10-01T11:20:34.200Z,12.55
2022-10-01T11:23:06.510Z,12.55
2022-10-01T11:25:31.464Z,11.88
2022-10-01T11:27:45.927Z,11.38
2022-10-01T11:30:07.966Z,10.82
2022-10-01T11:32:34.591Z,10.70
2022-10-01T11:34:42.683Z,9.43
2022-10-01T11:37:03.948Z,9.00
2022-10-01T11:39:13.248Z,8.85
2022-10-01T11:41:24.854Z,7.40
2022-10-01T11:43:42.398Z,7.22
2022-10-01T11:45:49.275Z,6.55
2022-10-01T11:48:12.614Z,6.75
2022-10-01T11:50:19.655Z,5.82
2022-10-01T11:52:56.643Z,6.07
2022-10-01T11:55:35.950Z,5.53
2022-10-01T11:57:58.058Z,7.70
2022-10-01T12:00:09.480Z,8.55
2022-10-01T12:02:28.306Z,7.72
2022-10-01T12:04:39.244Z,6.53
2022-10-01T12:07:17.564Z,7.25
2022-10-01T12:09:41.686Z,5.40
2022-10-01T12:11:53.701Z,5.20
2022-10-01T12:14:06.137Z,5.00
2022-10-01T12:16:26.526Z,5.43
2022-10-01T12:21:14.209Z,4.95
2022-10-01T12:23:29.979Z,4.73
2022-10-01T12:25:54.550Z,4.72
2022-10-01T12:28:12.479Z,5.45
2022-10-01T12:30:17.892Z,5.85
2022-10-01T12:32:23.686Z,5.97
2022-10-01T12:34:33.501Z,7.10
2022-10-01T12:36:44.584Z,6.43
2022-10-01T12:38:59.995Z,5.15
2022-10-01T12:41:08.175Z,5.43
2022-10-01T12:43:37.037Z,4.57
2022-10-01T12:46:02.467Z,3.85
2022-10-01T12:48:29.660Z,4.53
2022-10-01T12:50:47.158Z,4.20
2022-10-01T12:53:06.185Z,3.78
2022-10-01T12:55:50.131Z,3.72
2022-10-01T12:57:55.821Z,3.72
2022-10-01T13:00:19.348Z,4.28
2022-10-01T13:02:59.193Z,4.00
2022-10-01T13:05:16.086Z,4.65
2022-10-01T13:07:42.725Z,3.90
2022-10-01T13:10:08.483Z,3.42
2022-10-01T13:12:25.866Z,3.53
2022-10-01T13:14:29.493Z,3.28
2022-10-01T13:16:43.898Z,3.03
2022-10-01T13:19:14.540Z,3.37
2022-10-01T13:21:34.805Z,3.25
2022-10-01T13:23:49.129Z,3.17
2022-10-01T13:26:18.622Z,3.53
2022-10-01T13:28:58.404Z,3.10
2022-10-01T13:31:11.582Z,2.87
2022-10-01T13:33:24.000Z,6.62
2022-10-01T13:35:34.375Z,2.97
2022-10-01T13:37:40.192Z,3.10
2022-10-01T13:39:44.627Z,3.37
2022-10-01T13:41:48.065Z,3.72
2022-10-01T13:43:58.189Z,3.35
2022-10-01T13:46:11.217Z,2.93
2022-10-01T13:48:23.688Z,2.90
2022-10-01T13:50:26.457Z,2.83
2022-10-01T13:52:28.792Z,3.58
2022-10-01T13:54:43.300Z,3.33
2022-10-01T13:56:45.863Z,3.42
2022-10-01T13:58:50.320Z,5.05
2022-10-01T14:00:55.470Z,5.00
2022-10-01T14:03:23.546Z,5.37
2022-10-01T14:05:42.817Z,5.47
2022-10-01T14:07:47.789Z,6.53
2022-10-01T14:09:57.889Z,6.40
2022-10-01T14:12:26.523Z,6.10
2022-10-01T14:14:54.563Z,5.15
2022-10-01T14:16:58.801Z,5.97
2022-10-01T14:19:01.212Z,11.23
2022-10-01T14:21:28.726Z,6.18
2022-10-01T14:23:59.478Z,5.03
2022-10-01T14:26:20.269Z,5.43
2022-10-01T14:28:25.398Z,4.62
2022-10-01T14:30:48.650Z,6.00
2022-10-01T14:33:21.070Z,6.72
2022-10-01T14:35:48.015Z,8.18
2022-10-01T14:37:51.601Z,8.93
2022-10-01T14:40:12.374Z,7.75
2022-10-01T14:42:17.906Z,7.47
2022-10-01T14:44:21.208Z,7.65
2022-10-01T14:46:23.571Z,7.57
2022-10-01T14:48:28.394Z,7.80
2022-10-01T14:50:34.941Z,7.20
2022-10-01T14:52:41.225Z,7.47
2022-10-01T14:54:48.447Z,7.03
2022-10-01T14:56:51.853Z,8.07
2022-10-01T14:58:58.850Z,7.43
2022-10-01T15:01:01.998Z,6.62
2022-10-01T15:03:15.521Z,7.25
2022-10-01T15:05:25.482Z,6.85
2022-10-01T15:07:34.829Z,7.47
2022-10-01T15:09:37.264Z,7.53
2022-10-01T15:11:44.458Z,7.07
2022-10-01T15:13:49.618Z,8.80
2022-10-01T15:15:53.759Z,8.75
2022-10-01T15:17:56.055Z,8.77
2022-10-01T15:19:58.700Z,8.48
2022-10-01T15:22:02.330Z,9.45
2022-10-01T15:24:06.709Z,9.02
2022-10-01T15:26:14.123Z,9.05
2022-10-01T15:28:27.916Z,8.45
2022-10-01T15:30:30.976Z,9.63
2022-10-01T15:32:33.253Z,9.68
2022-10-01T15:34:38.999Z,8.93
2022-10-01T15:36:42.459Z,8.45
2022-10-01T15:38:49.020Z,8.02
2022-10-01T15:41:13.989Z,7.95
2022-10-01T15:43:38.301Z,7.95
2022-10-01T15:45:40.748Z,8.27
2022-10-01T15:47:56.874Z,6.82
2022-10-01T15:50:18.203Z,7.28
2022-10-01T15:52:38.906Z,6.55
2022-10-01T15:56:48.627Z,6.35
2022-10-01T15:58:55.506Z,6.53
2022-10-01T16:01:21.524Z,4.97
2022-10-01T16:03:33.020Z,5.55
2022-10-01T16:05:44.756Z,5.05
2022-10-01T16:07:49.870Z,4.70
2022-10-01T16:09:56.950Z,5.10
2022-10-01T16:12:10.993Z,4.95
2022-10-01T16:14:33.879Z,4.55
2022-10-01T16:16:36.813Z,4.45
2022-10-01T16:18:40.278Z,4.40
2022-10-01T16:20:46.603Z,3.92
2022-10-01T16:22:51.551Z,4.45
2022-10-01T16:25:00.369Z,3.80
2022-10-01T16:27:02.601Z,3.20
2022-10-01T16:29:14.707Z,3.17
2022-10-01T16:31:17.008Z,2.60
2022-10-01T16:33:19.351Z,2.75
2022-10-01T16:35:23.722Z,2.72
2022-10-01T16:37:25.900Z,3.05
2022-10-01T16:39:28.137Z,2.42
2022-10-01T16:41:33.064Z,2.25
2022-10-01T16:43:36.391Z,2.40
2022-10-01T16:45:40.332Z,2.72
2022-10-01T16:47:42.931Z,2.80
2022-10-01T16:49:47.163Z,3.15
2022-10-01T16:51:52.973Z,2.70
2022-10-01T16:53:55.774Z,2.40
2022-10-01T16:55:58.212Z,1.98
2022-10-01T16:58:02.134Z,8.30
2022-10-01T17:00:05.354Z,3.42
2022-10-01T17:02:12.105Z,2.15
2022-10-01T17:04:14.381Z,2.17
2022-10-01T17:06:16.860Z,2.80
2022-10-01T17:08:19.103Z,3.78
2022-10-01T17:10:23.600Z,8.50
2022-10-01T17:12:27.019Z,2.78
2022-10-01T17:14:29.340Z,5.15
2022-10-01T17:16:31.723Z,3.70
2022-10-01T17:18:34.324Z,5.22
2022-10-01T17:20:40.344Z,3.35
2022-10-01T17:22:43.437Z,2.50
2022-10-01T17:24:45.935Z,4.20
2022-10-01T17:26:48.322Z,3.85
2022-10-01T17:28:50.575Z,3.05
2022-10-01T17:30:53.090Z,5.25
2022-10-01T17:33:00.035Z,3.62
2022-10-01T17:35:02.312Z,3.55
2022-10-01T17:37:04.876Z,4.20
2022-10-01T17:39:07.143Z,2.67
2022-10-01T17:41:09.331Z,4.12
2022-10-01T17:43:13.259Z,2.87
2022-10-01T17:45:15.916Z,2.40
2022-10-01T17:47:18.266Z,2.83
2022-10-01T17:49:21.604Z,2.60
2022-10-01T17:51:23.875Z,2.65
2022-10-01T17:53:30.811Z,2.60
2022-10-01T17:55:43.290Z,3.17
2022-10-01T17:57:45.531Z,2.47
2022-10-01T17:59:47.720Z,2.40
2022-10-01T18:01:59.139Z,2.83
2022-10-01T18:04:03.670Z,2.80
2022-10-01T18:06:07.677Z,2.83
2022-10-01T18:08:09.953Z,2.90
2022-10-01T18:10:13.135Z,9.30
2022-10-01T18:12:15.549Z,3.72
2022-10-01T18:14:17.826Z,37.45
2022-10-01T18:16:21.714Z,2.83
2022-10-01T18:19:51.387Z,2.90
2022-10-01T18:20:46.209Z,2.28
2022-10-01T18:22:49.400Z,3.65
2022-10-01T18:24:51.636Z,3.05
2022-10-01T18:26:54.246Z,2.65
2022-10-01T18:28:56.830Z,3.00
2022-10-01T18:31:11.212Z,2.53
2022-10-01T18:33:13.526Z,3.37
2022-10-01T18:35:36.252Z,3.97
2022-10-01T18:37:39.993Z,3.85
2022-10-01T18:39:49.968Z,3.72
2022-10-01T18:41:52.844Z,4.15
2022-10-01T18:43:55.061Z,3.70
2022-10-01T18:46:00.042Z,3.35
2022-10-01T18:48:11.816Z,3.42
2022-10-01T18:50:32.829Z,4.35
2022-10-01T18:54:59.004Z,3.85
2022-10-01T18:57:03.920Z,5.12
2022-10-01T18:59:37.834Z,4.65
2022-10-01T19:01:58.906Z,13.60
2022-10-01T19:04:07.581Z,4.82
2022-10-01T19:06:45.098Z,6.00
2022-10-01T19:09:18.839Z,7.40
2022-10-01T19:11:29.929Z,6.45
2022-10-01T19:13:44.151Z,8.77
2022-10-01T19:16:34.598Z,6.05
2022-10-01T19:18:39.955Z,6.55
2022-10-01T19:20:55.096Z,4.62
2022-10-01T19:23:27.100Z,4.53
2022-10-01T19:25:35.035Z,3.85
2022-10-01T19:27:58.342Z,4.65
2022-10-01T19:30:06.856Z,4.85
2022-10-01T19:32:17.645Z,4.95
2022-10-01T19:34:28.548Z,6.30
2022-10-01T19:36:37.412Z,4.30
2022-10-01T19:38:42.436Z,6.68
2022-10-01T19:40:59.365Z,4.53
2022-10-01T19:43:28.034Z,5.72
2022-10-01T19:45:42.400Z,5.53
2022-10-01T19:47:52.220Z,4.40
2022-10-01T19:49:59.700Z,4.80
2022-10-01T19:52:10.629Z,3.62
2022-10-01T19:56:28.170Z,3.90
2022-10-01T19:58:32.629Z,4.40
2022-10-01T20:00:34.914Z,4.25
2022-10-01T20:02:50.773Z,4.53
2022-10-01T20:05:02.873Z,4.10
2022-10-01T20:07:11.423Z,4.07
2022-10-01T20:09:28.149Z,3.47
2022-10-01T20:11:38.765Z,3.50
2022-10-01T20:14:10.423Z,3.55
2022-10-01T20:16:22.566Z,4.15
2022-10-01T20:18:36.754Z,3.00
2022-10-01T20:20:46.102Z,3.10
2022-10-01T20:23:01.196Z,3.12
2022-10-01T20:25:40.336Z,3.28
2022-10-01T20:27:49.542Z,3.22
2022-10-01T20:30:10.571Z,3.35
2022-10-01T20:32:26.881Z,3.30
2022-10-01T20:34:32.625Z,3.20
2022-10-01T20:36:56.206Z,2.50
2022-10-01T20:39:12.945Z,2.80
2022-10-01T20:41:19.894Z,2.65
2022-10-01T20:43:37.433Z,2.67
2022-10-01T20:45:40.665Z,2.40
2022-10-01T20:47:50.861Z,2.80
2022-10-01T20:50:06.873Z,2.75
2022-10-01T20:52:46.611Z,2.65
2022-10-01T20:54:52.907Z,2.42
2022-10-01T20:57:16.069Z,2.45
2022-10-01T20:59:26.318Z,2.40
2022-10-01T21:01:32.417Z,2.67
2022-10-01T21:03:41.657Z,2.70
2022-10-01T21:05:56.651Z,2.33
2022-10-01T21:08:24.788Z,2.50
2022-10-01T21:10:59.593Z,2.50
2022-10-01T21:13:30.828Z,2.83
2022-10-01T21:16:11.931Z,2.47
2022-10-01T21:18:22.014Z,2.45
2022-10-01T21:20:59.448Z,2.57
2022-10-01T21:23:45.685Z,2.65
2022-10-01T21:25:57.408Z,2.30
2022-10-01T21:28:09.602Z,2.40
2022-10-01T21:30:23.176Z,2.40
2022-10-01T21:32:37.074Z,2.37
2022-10-01T21:34:49.356Z,2.55
2022-10-01T21:37:08.792Z,2.40
2022-10-01T21:39:30.208Z,2.10
2022-10-01T21:41:54.260Z,2.90
2022-10-01T21:44:24.740Z,5.30
2022-10-01T21:47:00.897Z,2.60
2022-10-01T21:49:26.374Z,2.37
2022-10-01T21:51:45.154Z,2.53
2022-10-01T21:53:50.518Z,2.58
2022-10-01T21:56:35.858Z,2.20
2022-10-01T21:58:56.345Z,2.10
2022-10-01T22:01:26.814Z,2.30
2022-10-01T22:03:45.083Z,2.40
2022-10-01T22:06:09.909Z,2.25
2022-10-01T22:08:44.572Z,1.95
2022-10-01T22:10:50.450Z,1.92
2022-10-01T22:12:58.721Z,2.00
